sensor_id;sensor_type;location;lat;lon;timestamp;temperature;humidity
14095;DHT22;18096;48.142;16.290;2022-07-29T00:01:20;21.10;67.00
14095;DHT22;18096;48.142;16.290;2022-07-29T00:03:46;21.10;67.40
14095;DHT22;18096;48.142;16.290;2022-07-29T00:06:12;21.00;67.60
14095;DHT22;18096;48.142;16.290;2022-07-29T00:08:37;21.00;67.50
14095;DHT22;18096;48.142;16.290;2022-07-29T00:11:03;21.00;67.60
14095;DHT22;18096;48.142;16.290;2022-07-29T00:13:29;20.90;67.30
14095;DHT22;18096;48.142;16.290;2022-07-29T00:15:55;20.90;67.50
14095;DHT22;18096;48.142;16.290;2022-07-29T00:18:20;20.90;67.80
14095;DHT22;18096;48.142;16.290;2022-07-29T00:20:46;20.90;67.90
14095;DHT22;18096;48.142;16.290;2022-07-29T00:23:11;20.90;68.30
14095;DHT22;18096;48.142;16.290;2022-07-29T00:25:37;20.80;68.20
14095;DHT22;18096;48.142;16.290;2022-07-29T00:28:03;20.80;68.20
14095;DHT22;18096;48.142;16.290;2022-07-29T00:30:28;20.80;68.30
14095;DHT22;18096;48.142;16.290;2022-07-29T00:32:54;20.80;68.00
14095;DHT22;18096;48.142;16.290;2022-07-29T00:35:19;20.70;67.70
14095;DHT22;18096;48.142;16.290;2022-07-29T00:38:04;20.70;68.00
14095;DHT22;18096;48.142;16.290;2022-07-29T00:40:29;20.70;68.10
14095;DHT22;18096;48.142;16.290;2022-07-29T00:42:55;20.70;68.50
14095;DHT22;18096;48.142;16.290;2022-07-29T00:45:21;20.60;68.30
14095;DHT22;18096;48.142;16.290;2022-07-29T00:47:48;20.60;68.70
14095;DHT22;18096;48.142;16.290;2022-07-29T00:50:14;20.50;68.40
14095;DHT22;18096;48.142;16.290;2022-07-29T00:52:40;20.50;68.50
14095;DHT22;18096;48.142;16.290;2022-07-29T00:55:10;20.50;68.50
14095;DHT22;18096;48.142;16.290;2022-07-29T00:57:36;20.40;68.70
14095;DHT22;18096;48.142;16.290;2022-07-29T01:00:08;20.40;69.50
14095;DHT22;18096;48.142;16.290;2022-07-29T01:02:34;20.40;69.50
14095;DHT22;18096;48.142;16.290;2022-07-29T01:05:03;20.40;69.30
14095;DHT22;18096;48.142;16.290;2022-07-29T01:07:30;20.40;69.30
14095;DHT22;18096;48.142;16.290;2022-07-29T01:09:58;20.40;69.30
14095;DHT22;18096;48.142;16.290;2022-07-29T01:12:28;20.30;69.60
14095;DHT22;18096;48.142;16.290;2022-07-29T01:14:58;20.30;69.30
14095;DHT22;18096;48.142;16.290;2022-07-29T01:26:33;20.20;69.20
14095;DHT22;18096;48.142;16.290;2022-07-29T01:31:59;20.10;69.40
14095;DHT22;18096;48.142;16.290;2022-07-29T01:37:15;20.10;69.80
14095;DHT22;18096;48.142;16.290;2022-07-29T01:39:47;20.10;69.70
14095;DHT22;18096;48.142;16.290;2022-07-29T01:42:40;20.00;69.30
14095;DHT22;18096;48.142;16.290;2022-07-29T01:45:08;20.00;69.50
14095;DHT22;18096;48.142;16.290;2022-07-29T01:50:17;20.00;69.90
14095;DHT22;18096;48.142;16.290;2022-07-29T01:52:54;19.90;69.80
14095;DHT22;18096;48.142;16.290;2022-07-29T01:55:24;19.90;69.70
14095;DHT22;18096;48.142;16.290;2022-07-29T01:57:50;19.90;70.10
14095;DHT22;18096;48.142;16.290;2022-07-29T02:00:17;19.80;70.10
14095;DHT22;18096;48.142;16.290;2022-07-29T02:02:44;19.80;70.20
14095;DHT22;18096;48.142;16.290;2022-07-29T02:05:13;19.80;70.10
14095;DHT22;18096;48.142;16.290;2022-07-29T02:07:41;19.80;71.10
14095;DHT22;18096;48.142;16.290;2022-07-29T02:10:09;19.80;70.60
14095;DHT22;18096;48.142;16.290;2022-07-29T02:12:36;19.70;70.50
14095;DHT22;18096;48.142;16.290;2022-07-29T02:15:04;19.70;70.90
14095;DHT22;18096;48.142;16.290;2022-07-29T02:17:41;19.70;70.80
14095;DHT22;18096;48.142;16.290;2022-07-29T02:20:08;19.70;71.20
14095;DHT22;18096;48.142;16.290;2022-07-29T02:22:37;19.70;71.00
14095;DHT22;18096;48.142;16.290;2022-07-29T02:25:04;19.60;70.90
14095;DHT22;18096;48.142;16.290;2022-07-29T02:27:31;19.60;70.90
14095;DHT22;18096;48.142;16.290;2022-07-29T02:30:01;19.50;71.10
14095;DHT22;18096;48.142;16.290;2022-07-29T02:32:29;19.40;71.10
14095;DHT22;18096;48.142;16.290;2022-07-29T02:34:56;19.40;71.10
14095;DHT22;18096;48.142;16.290;2022-07-29T02:37:24;19.40;71.10
14095;DHT22;18096;48.142;16.290;2022-07-29T02:39:53;19.40;71.50
14095;DHT22;18096;48.142;16.290;2022-07-29T02:42:22;19.40;71.50
14095;DHT22;18096;48.142;16.290;2022-07-29T02:44:49;19.40;71.60
14095;DHT22;18096;48.142;16.290;2022-07-29T02:47:42;19.40;71.50
14095;DHT22;18096;48.142;16.290;2022-07-29T02:50:22;19.30;71.40
14095;DHT22;18096;48.142;16.290;2022-07-29T02:53:03;19.30;71.60
14095;DHT22;18096;48.142;16.290;2022-07-29T02:55:59;19.20;71.80
14095;DHT22;18096;48.142;16.290;2022-07-29T02:58:27;19.30;72.00
14095;DHT22;18096;48.142;16.290;2022-07-29T03:00:59;19.30;72.40
14095;DHT22;18096;48.142;16.290;2022-07-29T03:03:29;19.20;72.00
14095;DHT22;18096;48.142;16.290;2022-07-29T03:05:58;19.20;71.90
14095;DHT22;18096;48.142;16.290;2022-07-29T03:08:26;19.20;72.30
14095;DHT22;18096;48.142;16.290;2022-07-29T03:10:53;19.20;72.40
14095;DHT22;18096;48.142;16.290;2022-07-29T03:13:19;19.20;72.30
14095;DHT22;18096;48.142;16.290;2022-07-29T03:15:45;19.20;72.30
14095;DHT22;18096;48.142;16.290;2022-07-29T03:18:12;19.20;72.30
14095;DHT22;18096;48.142;16.290;2022-07-29T03:20:39;19.20;72.10
14095;DHT22;18096;48.142;16.290;2022-07-29T03:23:05;19.20;72.00
14095;DHT22;18096;48.142;16.290;2022-07-29T03:25:31;19.20;72.10
14095;DHT22;18096;48.142;16.290;2022-07-29T03:27:57;19.20;72.30
14095;DHT22;18096;48.142;16.290;2022-07-29T03:30:23;19.20;72.30
14095;DHT22;18096;48.142;16.290;2022-07-29T03:32:49;19.20;72.30
14095;DHT22;18096;48.142;16.290;2022-07-29T03:35:15;19.10;72.10
14095;DHT22;18096;48.142;16.290;2022-07-29T03:37:45;19.10;72.40
14095;DHT22;18096;48.142;16.290;2022-07-29T03:40:16;19.00;73.00
14095;DHT22;18096;48.142;16.290;2022-07-29T03:42:44;19.00;73.30
14095;DHT22;18096;48.142;16.290;2022-07-29T03:45:14;18.90;73.20
14095;DHT22;18096;48.142;16.290;2022-07-29T03:47:45;18.80;73.40
14095;DHT22;18096;48.142;16.290;2022-07-29T03:50:14;18.80;73.60
14095;DHT22;18096;48.142;16.290;2022-07-29T03:52:40;18.80;73.70
14095;DHT22;18096;48.142;16.290;2022-07-29T03:55:07;18.80;74.20
14095;DHT22;18096;48.142;16.290;2022-07-29T03:57:35;18.70;74.10
14095;DHT22;18096;48.142;16.290;2022-07-29T04:00:03;18.70;73.80
14095;DHT22;18096;48.142;16.290;2022-07-29T04:02:30;18.70;73.70
14095;DHT22;18096;48.142;16.290;2022-07-29T04:04:56;18.70;73.90
14095;DHT22;18096;48.142;16.290;2022-07-29T04:07:22;18.70;74.00
14095;DHT22;18096;48.142;16.290;2022-07-29T04:09:48;18.80;74.10
14095;DHT22;18096;48.142;16.290;2022-07-29T04:12:13;18.80;74.10
14095;DHT22;18096;48.142;16.290;2022-07-29T04:14:39;18.80;74.20
14095;DHT22;18096;48.142;16.290;2022-07-29T04:17:05;18.90;74.60
14095;DHT22;18096;48.142;16.290;2022-07-29T04:19:31;18.90;74.70
14095;DHT22;18096;48.142;16.290;2022-07-29T04:21:59;19.00;74.80
14095;DHT22;18096;48.142;16.290;2022-07-29T04:24:25;19.00;74.50
14095;DHT22;18096;48.142;16.290;2022-07-29T04:26:50;19.10;75.00
14095;DHT22;18096;48.142;16.290;2022-07-29T04:29:16;19.10;74.60
14095;DHT22;18096;48.142;16.290;2022-07-29T04:31:42;19.10;74.50
14095;DHT22;18096;48.142;16.290;2022-07-29T04:34:09;19.20;75.10
14095;DHT22;18096;48.142;16.290;2022-07-29T04:36:35;19.30;74.10
14095;DHT22;18096;48.142;16.290;2022-07-29T04:39:00;19.30;74.10
14095;DHT22;18096;48.142;16.290;2022-07-29T04:41:30;19.30;73.80
14095;DHT22;18096;48.142;16.290;2022-07-29T04:43:56;19.40;73.50
14095;DHT22;18096;48.142;16.290;2022-07-29T04:46:22;19.50;73.30
14095;DHT22;18096;48.142;16.290;2022-07-29T04:48:48;19.60;73.40
14095;DHT22;18096;48.142;16.290;2022-07-29T04:51:16;19.60;73.10
14095;DHT22;18096;48.142;16.290;2022-07-29T04:53:42;19.70;73.60
14095;DHT22;18096;48.142;16.290;2022-07-29T04:56:08;19.80;73.70
14095;DHT22;18096;48.142;16.290;2022-07-29T04:58:35;19.80;74.00
14095;DHT22;18096;48.142;16.290;2022-07-29T05:01:00;19.90;74.50
14095;DHT22;18096;48.142;16.290;2022-07-29T05:03:26;20.00;74.50
14095;DHT22;18096;48.142;16.290;2022-07-29T05:05:52;20.00;73.90
14095;DHT22;18096;48.142;16.290;2022-07-29T05:08:18;20.10;74.00
14095;DHT22;18096;48.142;16.290;2022-07-29T05:10:43;20.20;73.80
14095;DHT22;18096;48.142;16.290;2022-07-29T05:13:09;20.30;73.50
14095;DHT22;18096;48.142;16.290;2022-07-29T05:15:35;20.40;72.50
14095;DHT22;18096;48.142;16.290;2022-07-29T05:18:01;20.60;71.30
14095;DHT22;18096;48.142;16.290;2022-07-29T05:20:27;20.80;72.30
14095;DHT22;18096;48.142;16.290;2022-07-29T05:22:58;21.00;70.80
14095;DHT22;18096;48.142;16.290;2022-07-29T05:25:28;21.10;68.70
14095;DHT22;18096;48.142;16.290;2022-07-29T05:27:54;21.20;68.80
14095;DHT22;18096;48.142;16.290;2022-07-29T05:30:20;21.30;68.60
14095;DHT22;18096;48.142;16.290;2022-07-29T05:32:46;21.40;67.00
14095;DHT22;18096;48.142;16.290;2022-07-29T05:35:13;21.40;67.00
14095;DHT22;18096;48.142;16.290;2022-07-29T05:37:39;21.50;66.50
14095;DHT22;18096;48.142;16.290;2022-07-29T05:40:05;21.60;66.50
14095;DHT22;18096;48.142;16.290;2022-07-29T05:42:31;21.70;65.80
14095;DHT22;18096;48.142;16.290;2022-07-29T05:44:56;21.70;65.60
14095;DHT22;18096;48.142;16.290;2022-07-29T05:47:22;21.80;65.80
14095;DHT22;18096;48.142;16.290;2022-07-29T05:49:48;21.80;65.60
14095;DHT22;18096;48.142;16.290;2022-07-29T05:52:14;21.90;66.10
14095;DHT22;18096;48.142;16.290;2022-07-29T05:54:40;22.00;65.30
14095;DHT22;18096;48.142;16.290;2022-07-29T05:57:06;22.10;65.40
14095;DHT22;18096;48.142;16.290;2022-07-29T05:59:36;22.20;65.50
14095;DHT22;18096;48.142;16.290;2022-07-29T06:02:02;22.30;65.20
14095;DHT22;18096;48.142;16.290;2022-07-29T06:04:28;22.40;64.60
14095;DHT22;18096;48.142;16.290;2022-07-29T06:06:54;22.40;64.70
14095;DHT22;18096;48.142;16.290;2022-07-29T06:09:19;22.50;64.60
14095;DHT22;18096;48.142;16.290;2022-07-29T06:11:45;22.50;64.10
14095;DHT22;18096;48.142;16.290;2022-07-29T06:14:10;22.50;64.00
14095;DHT22;18096;48.142;16.290;2022-07-29T06:16:36;22.50;64.40
14095;DHT22;18096;48.142;16.290;2022-07-29T06:19:02;22.60;64.40
14095;DHT22;18096;48.142;16.290;2022-07-29T06:21:27;22.60;64.60
14095;DHT22;18096;48.142;16.290;2022-07-29T06:23:53;22.60;64.90
14095;DHT22;18096;48.142;16.290;2022-07-29T06:26:19;22.60;65.00
14095;DHT22;18096;48.142;16.290;2022-07-29T06:28:44;22.60;65.10
14095;DHT22;18096;48.142;16.290;2022-07-29T06:31:10;22.60;65.10
14095;DHT22;18096;48.142;16.290;2022-07-29T06:33:36;22.60;65.30
14095;DHT22;18096;48.142;16.290;2022-07-29T06:36:04;22.60;65.80
14095;DHT22;18096;48.142;16.290;2022-07-29T06:38:30;22.80;65.90
14095;DHT22;18096;48.142;16.290;2022-07-29T06:40:55;22.90;65.60
14095;DHT22;18096;48.142;16.290;2022-07-29T06:43:47;23.00;65.40
14095;DHT22;18096;48.142;16.290;2022-07-29T06:46:14;23.10;65.40
14095;DHT22;18096;48.142;16.290;2022-07-29T06:48:41;23.10;66.00
14095;DHT22;18096;48.142;16.290;2022-07-29T06:51:08;23.00;65.30
14095;DHT22;18096;48.142;16.290;2022-07-29T06:53:34;22.90;65.00
14095;DHT22;18096;48.142;16.290;2022-07-29T06:56:01;22.80;65.10
14095;DHT22;18096;48.142;16.290;2022-07-29T06:58:28;22.80;65.50
14095;DHT22;18096;48.142;16.290;2022-07-29T07:00:53;22.70;65.80
14095;DHT22;18096;48.142;16.290;2022-07-29T07:03:19;22.80;65.80
14095;DHT22;18096;48.142;16.290;2022-07-29T07:05:45;22.80;65.80
14095;DHT22;18096;48.142;16.290;2022-07-29T07:08:12;22.70;66.10
14095;DHT22;18096;48.142;16.290;2022-07-29T07:10:39;22.80;65.70
14095;DHT22;18096;48.142;16.290;2022-07-29T07:13:05;22.80;65.50
14095;DHT22;18096;48.142;16.290;2022-07-29T07:15:30;22.80;65.50
14095;DHT22;18096;48.142;16.290;2022-07-29T07:17:56;22.90;65.70
14095;DHT22;18096;48.142;16.290;2022-07-29T07:20:23;22.80;65.60
14095;DHT22;18096;48.142;16.290;2022-07-29T07:22:49;22.90;65.80
14095;DHT22;18096;48.142;16.290;2022-07-29T07:25:14;22.90;65.60
14095;DHT22;18096;48.142;16.290;2022-07-29T07:27:40;23.00;65.40
14095;DHT22;18096;48.142;16.290;2022-07-29T07:30:07;23.00;65.60
14095;DHT22;18096;48.142;16.290;2022-07-29T07:32:34;23.10;65.60
14095;DHT22;18096;48.142;16.290;2022-07-29T07:34:59;23.20;65.70
14095;DHT22;18096;48.142;16.290;2022-07-29T07:37:25;23.20;65.40
14095;DHT22;18096;48.142;16.290;2022-07-29T07:39:52;23.20;65.30
14095;DHT22;18096;48.142;16.290;2022-07-29T07:42:18;23.20;65.10
14095;DHT22;18096;48.142;16.290;2022-07-29T07:44:44;23.30;65.30
14095;DHT22;18096;48.142;16.290;2022-07-29T07:47:11;23.30;65.10
14095;DHT22;18096;48.142;16.290;2022-07-29T07:49:37;23.40;65.00
14095;DHT22;18096;48.142;16.290;2022-07-29T07:52:03;23.50;64.90
14095;DHT22;18096;48.142;16.290;2022-07-29T07:54:29;23.50;64.40
14095;DHT22;18096;48.142;16.290;2022-07-29T07:56:54;23.60;64.50
14095;DHT22;18096;48.142;16.290;2022-07-29T07:59:20;23.70;65.10
14095;DHT22;18096;48.142;16.290;2022-07-29T08:01:46;23.70;64.40
14095;DHT22;18096;48.142;16.290;2022-07-29T08:04:14;23.80;64.30
14095;DHT22;18096;48.142;16.290;2022-07-29T08:06:41;23.90;64.30
14095;DHT22;18096;48.142;16.290;2022-07-29T08:09:07;23.90;64.00
14095;DHT22;18096;48.142;16.290;2022-07-29T08:11:33;24.00;64.00
14095;DHT22;18096;48.142;16.290;2022-07-29T08:13:58;24.10;63.00
14095;DHT22;18096;48.142;16.290;2022-07-29T08:16:27;24.20;63.00
14095;DHT22;18096;48.142;16.290;2022-07-29T08:18:52;24.30;62.80
14095;DHT22;18096;48.142;16.290;2022-07-29T08:21:22;24.40;62.80
14095;DHT22;18096;48.142;16.290;2022-07-29T08:24:01;24.40;62.30
14095;DHT22;18096;48.142;16.290;2022-07-29T08:27:07;24.50;62.60
14095;DHT22;18096;48.142;16.290;2022-07-29T08:29:33;24.50;61.80
14095;DHT22;18096;48.142;16.290;2022-07-29T08:31:58;24.50;61.40
14095;DHT22;18096;48.142;16.290;2022-07-29T08:34:24;24.60;61.20
14095;DHT22;18096;48.142;16.290;2022-07-29T08:36:50;24.50;61.40
14095;DHT22;18096;48.142;16.290;2022-07-29T08:39:15;24.60;62.10
14095;DHT22;18096;48.142;16.290;2022-07-29T08:41:41;24.50;61.80
14095;DHT22;18096;48.142;16.290;2022-07-29T08:44:07;24.60;62.00
14095;DHT22;18096;48.142;16.290;2022-07-29T08:46:36;24.70;62.00
14095;DHT22;18096;48.142;16.290;2022-07-29T08:49:02;24.80;61.30
14095;DHT22;18096;48.142;16.290;2022-07-29T08:51:28;24.90;61.30
14095;DHT22;18096;48.142;16.290;2022-07-29T08:53:54;25.00;61.20
14095;DHT22;18096;48.142;16.290;2022-07-29T08:56:20;25.00;61.20
14095;DHT22;18096;48.142;16.290;2022-07-29T08:58:47;25.10;61.20
14095;DHT22;18096;48.142;16.290;2022-07-29T09:01:25;25.10;60.90
14095;DHT22;18096;48.142;16.290;2022-07-29T09:03:55;25.10;60.50
14095;DHT22;18096;48.142;16.290;2022-07-29T09:06:22;25.10;60.40
14095;DHT22;18096;48.142;16.290;2022-07-29T09:08:58;25.20;60.40
14095;DHT22;18096;48.142;16.290;2022-07-29T09:11:24;25.20;60.40
14095;DHT22;18096;48.142;16.290;2022-07-29T09:13:52;25.20;59.40
14095;DHT22;18096;48.142;16.290;2022-07-29T09:16:18;25.10;59.50
14095;DHT22;18096;48.142;16.290;2022-07-29T09:18:45;25.20;59.90
14095;DHT22;18096;48.142;16.290;2022-07-29T09:21:12;25.20;59.70
14095;DHT22;18096;48.142;16.290;2022-07-29T09:24:12;25.20;59.60
14095;DHT22;18096;48.142;16.290;2022-07-29T09:26:45;25.20;59.90
14095;DHT22;18096;48.142;16.290;2022-07-29T09:29:22;25.30;59.70
14095;DHT22;18096;48.142;16.290;2022-07-29T09:31:51;25.30;59.70
14095;DHT22;18096;48.142;16.290;2022-07-29T09:34:27;25.40;59.20
14095;DHT22;18096;48.142;16.290;2022-07-29T09:36:58;25.40;58.80
14095;DHT22;18096;48.142;16.290;2022-07-29T09:39:40;25.50;58.60
14095;DHT22;18096;48.142;16.290;2022-07-29T09:42:12;25.50;58.40
14095;DHT22;18096;48.142;16.290;2022-07-29T09:44:46;25.50;58.00
14095;DHT22;18096;48.142;16.290;2022-07-29T09:47:15;25.50;58.50
14095;DHT22;18096;48.142;16.290;2022-07-29T09:49:59;25.60;58.30
14095;DHT22;18096;48.142;16.290;2022-07-29T09:52:28;25.70;58.60
14095;DHT22;18096;48.142;16.290;2022-07-29T09:55:08;25.70;58.40
14095;DHT22;18096;48.142;16.290;2022-07-29T09:57:34;25.80;58.00
14095;DHT22;18096;48.142;16.290;2022-07-29T10:02:44;25.90;57.80
14095;DHT22;18096;48.142;16.290;2022-07-29T10:05:36;26.00;58.10
14095;DHT22;18096;48.142;16.290;2022-07-29T10:08:02;26.00;58.10
14095;DHT22;18096;48.142;16.290;2022-07-29T10:10:30;26.10;57.40
14095;DHT22;18096;48.142;16.290;2022-07-29T10:13:01;26.20;57.10
14095;DHT22;18096;48.142;16.290;2022-07-29T10:15:29;26.20;56.70
14095;DHT22;18096;48.142;16.290;2022-07-29T10:17:56;26.20;56.80
14095;DHT22;18096;48.142;16.290;2022-07-29T10:20:23;26.20;56.60
14095;DHT22;18096;48.142;16.290;2022-07-29T10:22:50;26.20;55.60
14095;DHT22;18096;48.142;16.290;2022-07-29T10:25:17;26.30;55.80
14095;DHT22;18096;48.142;16.290;2022-07-29T10:27:44;26.30;56.10
14095;DHT22;18096;48.142;16.290;2022-07-29T10:30:11;26.30;55.90
14095;DHT22;18096;48.142;16.290;2022-07-29T10:33:05;26.40;56.20
14095;DHT22;18096;48.142;16.290;2022-07-29T10:36:02;26.40;55.10
14095;DHT22;18096;48.142;16.290;2022-07-29T10:38:44;26.50;55.10
14095;DHT22;18096;48.142;16.290;2022-07-29T10:41:39;26.60;54.90
14095;DHT22;18096;48.142;16.290;2022-07-29T10:44:22;26.60;55.00
14095;DHT22;18096;48.142;16.290;2022-07-29T10:46:50;26.60;56.00
14095;DHT22;18096;48.142;16.290;2022-07-29T10:49:56;26.50;54.80
14095;DHT22;18096;48.142;16.290;2022-07-29T11:03:02;26.60;54.70
14095;DHT22;18096;48.142;16.290;2022-07-29T11:05:27;26.60;54.60
14095;DHT22;18096;48.142;16.290;2022-07-29T11:10:41;26.70;54.60
14095;DHT22;18096;48.142;16.290;2022-07-29T11:13:08;26.70;54.30
14095;DHT22;18096;48.142;16.290;2022-07-29T11:16:02;26.70;53.60
14095;DHT22;18096;48.142;16.290;2022-07-29T11:18:32;26.70;54.20
14095;DHT22;18096;48.142;16.290;2022-07-29T11:20:57;26.70;53.60
14095;DHT22;18096;48.142;16.290;2022-07-29T11:23:28;26.70;53.30
14095;DHT22;18096;48.142;16.290;2022-07-29T11:29:03;26.80;53.50
14095;DHT22;18096;48.142;16.290;2022-07-29T11:31:39;26.90;53.70
14095;DHT22;18096;48.142;16.290;2022-07-29T11:37:23;27.00;55.30
14095;DHT22;18096;48.142;16.290;2022-07-29T11:40:11;27.10;54.30
14095;DHT22;18096;48.142;16.290;2022-07-29T11:42:42;27.20;53.70
14095;DHT22;18096;48.142;16.290;2022-07-29T11:45:09;27.20;53.60
14095;DHT22;18096;48.142;16.290;2022-07-29T11:47:40;27.30;53.80
14095;DHT22;18096;48.142;16.290;2022-07-29T11:50:08;27.30;53.50
14095;DHT22;18096;48.142;16.290;2022-07-29T11:52:43;27.40;53.60
14095;DHT22;18096;48.142;16.290;2022-07-29T11:55:16;27.40;53.40
14095;DHT22;18096;48.142;16.290;2022-07-29T11:57:50;27.40;53.60
14095;DHT22;18096;48.142;16.290;2022-07-29T12:00:24;27.40;53.50
14095;DHT22;18096;48.142;16.290;2022-07-29T12:02:50;27.40;53.30
14095;DHT22;18096;48.142;16.290;2022-07-29T12:05:17;27.40;53.20
14095;DHT22;18096;48.142;16.290;2022-07-29T12:07:43;27.40;52.90
14095;DHT22;18096;48.142;16.290;2022-07-29T12:10:08;27.40;53.10
14095;DHT22;18096;48.142;16.290;2022-07-29T12:12:35;27.40;53.00
14095;DHT22;18096;48.142;16.290;2022-07-29T12:15:16;27.40;53.30
14095;DHT22;18096;48.142;16.290;2022-07-29T12:17:44;27.40;53.40
14095;DHT22;18096;48.142;16.290;2022-07-29T12:20:10;27.50;52.80
14095;DHT22;18096;48.142;16.290;2022-07-29T12:23:06;27.60;52.40
14095;DHT22;18096;48.142;16.290;2022-07-29T12:25:43;27.60;51.80
14095;DHT22;18096;48.142;16.290;2022-07-29T12:28:12;27.60;52.00
14095;DHT22;18096;48.142;16.290;2022-07-29T12:30:49;27.60;52.50
14095;DHT22;18096;48.142;16.290;2022-07-29T12:33:25;27.60;52.10
14095;DHT22;18096;48.142;16.290;2022-07-29T12:36:00;27.60;51.80
14095;DHT22;18096;48.142;16.290;2022-07-29T12:38:41;27.60;52.50
14095;DHT22;18096;48.142;16.290;2022-07-29T12:41:28;27.70;52.80
14095;DHT22;18096;48.142;16.290;2022-07-29T12:44:42;27.70;51.80
14095;DHT22;18096;48.142;16.290;2022-07-29T12:47:20;27.70;51.90
14095;DHT22;18096;48.142;16.290;2022-07-29T12:50:12;27.70;52.20
14095;DHT22;18096;48.142;16.290;2022-07-29T12:52:53;27.70;52.10
14095;DHT22;18096;48.142;16.290;2022-07-29T12:55:42;27.60;52.40
14095;DHT22;18096;48.142;16.290;2022-07-29T12:58:10;27.60;52.40
14095;DHT22;18096;48.142;16.290;2022-07-29T13:00:42;27.60;53.50
14095;DHT22;18096;48.142;16.290;2022-07-29T13:03:09;27.60;54.10
14095;DHT22;18096;48.142;16.290;2022-07-29T13:05:44;27.50;54.40
14095;DHT22;18096;48.142;16.290;2022-07-29T13:08:14;27.40;55.10
14095;DHT22;18096;48.142;16.290;2022-07-29T13:10:41;27.30;55.30
14095;DHT22;18096;48.142;16.290;2022-07-29T13:13:13;27.10;55.50
14095;DHT22;18096;48.142;16.290;2022-07-29T13:15:41;27.00;55.70
14095;DHT22;18096;48.142;16.290;2022-07-29T13:18:33;26.90;55.80
14095;DHT22;18096;48.142;16.290;2022-07-29T13:21:17;26.80;56.10
14095;DHT22;18096;48.142;16.290;2022-07-29T13:23:46;26.70;56.60
14095;DHT22;18096;48.142;16.290;2022-07-29T13:26:11;26.50;57.00
14095;DHT22;18096;48.142;16.290;2022-07-29T13:31:35;26.30;57.80
14095;DHT22;18096;48.142;16.290;2022-07-29T13:34:03;26.20;58.20
14095;DHT22;18096;48.142;16.290;2022-07-29T13:36:31;26.10;58.50
14095;DHT22;18096;48.142;16.290;2022-07-29T13:39:20;26.00;58.50
14095;DHT22;18096;48.142;16.290;2022-07-29T13:41:50;26.00;59.20
14095;DHT22;18096;48.142;16.290;2022-07-29T13:44:33;25.80;59.60
14095;DHT22;18096;48.142;16.290;2022-07-29T13:47:07;25.70;60.30
14095;DHT22;18096;48.142;16.290;2022-07-29T13:50:01;25.50;61.00
14095;DHT22;18096;48.142;16.290;2022-07-29T13:52:29;25.40;61.80
14095;DHT22;18096;48.142;16.290;2022-07-29T13:55:00;25.30;62.80
14095;DHT22;18096;48.142;16.290;2022-07-29T13:57:26;25.10;63.70
14095;DHT22;18096;48.142;16.290;2022-07-29T14:00:09;25.00;64.60
14095;DHT22;18096;48.142;16.290;2022-07-29T14:02:39;24.90;66.30
14095;DHT22;18096;48.142;16.290;2022-07-29T14:05:06;24.80;67.60
14095;DHT22;18096;48.142;16.290;2022-07-29T14:07:36;24.60;68.80
14095;DHT22;18096;48.142;16.290;2022-07-29T14:10:14;24.50;69.90
14095;DHT22;18096;48.142;16.290;2022-07-29T14:12:50;24.20;70.60
14095;DHT22;18096;48.142;16.290;2022-07-29T14:15:20;24.00;71.20
14095;DHT22;18096;48.142;16.290;2022-07-29T14:17:55;23.90;71.60
14095;DHT22;18096;48.142;16.290;2022-07-29T14:20:34;23.80;72.50
14095;DHT22;18096;48.142;16.290;2022-07-29T14:23:03;23.60;73.20
14095;DHT22;18096;48.142;16.290;2022-07-29T14:25:46;23.40;74.00
14095;DHT22;18096;48.142;16.290;2022-07-29T14:28:41;23.30;74.60
14095;DHT22;18096;48.142;16.290;2022-07-29T14:31:12;23.20;75.60
14095;DHT22;18096;48.142;16.290;2022-07-29T14:33:37;23.10;76.60
14095;DHT22;18096;48.142;16.290;2022-07-29T14:36:06;23.00;77.40
14095;DHT22;18096;48.142;16.290;2022-07-29T14:38:43;22.80;77.50
14095;DHT22;18096;48.142;16.290;2022-07-29T14:41:19;22.80;77.30
14095;DHT22;18096;48.142;16.290;2022-07-29T14:44:01;22.60;78.30
14095;DHT22;18096;48.142;16.290;2022-07-29T14:49:07;22.40;79.10
14095;DHT22;18096;48.142;16.290;2022-07-29T14:51:45;22.30;80.10
14095;DHT22;18096;48.142;16.290;2022-07-29T14:54:13;22.20;80.60
14095;DHT22;18096;48.142;16.290;2022-07-29T14:56:59;22.20;81.00
14095;DHT22;18096;48.142;16.290;2022-07-29T15:00:04;22.20;82.00
14095;DHT22;18096;48.142;16.290;2022-07-29T15:02:50;22.10;82.60
14095;DHT22;18096;48.142;16.290;2022-07-29T15:05:16;22.00;82.70
14095;DHT22;18096;48.142;16.290;2022-07-29T15:07:42;22.00;83.90
14095;DHT22;18096;48.142;16.290;2022-07-29T15:10:08;22.10;84.30
14095;DHT22;18096;48.142;16.290;2022-07-29T15:12:35;22.10;85.00
14095;DHT22;18096;48.142;16.290;2022-07-29T15:15:01;22.20;85.10
14095;DHT22;18096;48.142;16.290;2022-07-29T15:17:35;22.20;85.20
14095;DHT22;18096;48.142;16.290;2022-07-29T15:20:01;22.20;85.30
14095;DHT22;18096;48.142;16.290;2022-07-29T15:22:28;22.20;85.30
14095;DHT22;18096;48.142;16.290;2022-07-29T15:24:55;22.30;85.10
14095;DHT22;18096;48.142;16.290;2022-07-29T15:27:21;22.30;85.10
14095;DHT22;18096;48.142;16.290;2022-07-29T15:29:46;22.30;85.20
14095;DHT22;18096;48.142;16.290;2022-07-29T15:32:19;22.30;85.60
14095;DHT22;18096;48.142;16.290;2022-07-29T15:34:45;22.30;86.80
14095;DHT22;18096;48.142;16.290;2022-07-29T15:37:11;22.30;86.90
14095;DHT22;18096;48.142;16.290;2022-07-29T15:39:39;22.30;87.20
14095;DHT22;18096;48.142;16.290;2022-07-29T15:42:05;22.30;87.30
14095;DHT22;18096;48.142;16.290;2022-07-29T15:44:30;22.30;87.40
14095;DHT22;18096;48.142;16.290;2022-07-29T15:46:56;22.30;87.70
14095;DHT22;18096;48.142;16.290;2022-07-29T15:49:39;22.30;88.30
14095;DHT22;18096;48.142;16.290;2022-07-29T15:52:07;22.30;89.00
14095;DHT22;18096;48.142;16.290;2022-07-29T15:54:34;22.30;89.10
14095;DHT22;18096;48.142;16.290;2022-07-29T15:57:00;22.30;89.30
14095;DHT22;18096;48.142;16.290;2022-07-29T15:59:27;22.40;88.90
14095;DHT22;18096;48.142;16.290;2022-07-29T16:01:54;22.40;88.90
14095;DHT22;18096;48.142;16.290;2022-07-29T16:04:21;22.40;88.70
14095;DHT22;18096;48.142;16.290;2022-07-29T16:06:58;22.40;88.60
14095;DHT22;18096;48.142;16.290;2022-07-29T16:12:52;22.50;87.70
14095;DHT22;18096;48.142;16.290;2022-07-29T16:15:23;22.50;87.00
14095;DHT22;18096;48.142;16.290;2022-07-29T16:18:31;22.50;86.80
14095;DHT22;18096;48.142;16.290;2022-07-29T16:21:19;22.60;86.90
14095;DHT22;18096;48.142;16.290;2022-07-29T16:23:50;22.60;87.20